BAW209 EGLL-KMIA
Flight info
| Callsign | BAW209 |
|---|---|
| Flight time | N/A |
| Altitude | 34000 |
| Route | GOGSI N621 EVTES N514 ADKIK DCT JOZMA DCT GAPLI/M083F340 DCT OMOKO DCT 47N020W 44N030W 42N040W/M083F360 36N050W 32N060W DCT WINGZ DCT GECAL M331 MEGGG/M083F380 M331 LFANO M595 MILLE/N0480F380 DCT ZQA VIICE2 |
| Aircraft | A388/J-SADE2E3FGHIJ3J4J5M1RWXY/LB1D1 |
Departure
| Time | N/A |
|---|---|
| Airport | London Heathrow Airport (EGLL) |
Arrival
| Time | 2026-05-04 17:16 |
|---|---|
| Airport | Miami International Airport (KMIA) |
| Time | Latitude | Longitude | Altitude | Speed | Heading |
|---|---|---|---|---|---|
| 2026-05-04 14:56 | 29.40616 | -65.45602 | 36148 ft | 420 kts | 241° |
| 2026-05-04 14:56 | 29.39196 | -65.48531 | 36148 ft | 420 kts | 242° |
| 2026-05-04 14:57 | 29.36386 | -65.54398 | 36143 ft | 419 kts | 242° |
| 2026-05-04 14:57 | 29.33540 | -65.60221 | 36131 ft | 419 kts | 242° |
| 2026-05-04 14:58 | 29.30662 | -65.66030 | 36142 ft | 420 kts | 241° |
| 2026-05-04 14:58 | 29.27775 | -65.71852 | 36135 ft | 420 kts | 241° |
| 2026-05-04 14:59 | 29.24896 | -65.77662 | 36140 ft | 420 kts | 241° |
| 2026-05-04 15:00 | 29.20572 | -65.86377 | 36143 ft | 419 kts | 241° |
| 2026-05-04 15:00 | 29.17688 | -65.92176 | 36142 ft | 420 kts | 242° |
| 2026-05-04 15:01 | 29.13349 | -66.00882 | 36128 ft | 420 kts | 241° |
| 2026-05-04 15:01 | 29.10452 | -66.06681 | 36151 ft | 420 kts | 241° |
| 2026-05-04 15:02 | 29.07554 | -66.12478 | 36148 ft | 420 kts | 241° |
| 2026-05-04 15:02 | 29.04652 | -66.18278 | 36145 ft | 420 kts | 241° |
| 2026-05-04 15:03 | 29.01772 | -66.24021 | 36147 ft | 419 kts | 241° |
| 2026-05-04 15:03 | 28.98865 | -66.29795 | 36121 ft | 419 kts | 241° |
| 2026-05-04 15:04 | 28.95963 | -66.35568 | 36128 ft | 419 kts | 241° |
| 2026-05-04 15:04 | 28.93064 | -66.41338 | 36124 ft | 419 kts | 241° |
| 2026-05-04 15:05 | 28.90157 | -66.47113 | 36126 ft | 420 kts | 241° |
| 2026-05-04 15:05 | 28.87236 | -66.52884 | 36120 ft | 420 kts | 241° |
| 2026-05-04 15:06 | 28.84319 | -66.58651 | 36122 ft | 420 kts | 241° |
| 2026-05-04 15:07 | 28.79935 | -66.67314 | 36125 ft | 420 kts | 241° |
| 2026-05-04 15:07 | 28.77005 | -66.73079 | 36129 ft | 421 kts | 241° |
| 2026-05-04 15:08 | 28.74073 | -66.78846 | 36132 ft | 420 kts | 241° |
| 2026-05-04 15:08 | 28.71140 | -66.84618 | 36133 ft | 421 kts | 240° |
| 2026-05-04 15:09 | 28.68204 | -66.90380 | 36135 ft | 420 kts | 240° |
| 2026-05-04 15:09 | 28.65261 | -66.96151 | 36130 ft | 421 kts | 240° |
| 2026-05-04 15:10 | 28.60844 | -67.04791 | 36124 ft | 421 kts | 240° |
| 2026-05-04 15:11 | 28.56423 | -67.13420 | 36130 ft | 421 kts | 240° |
| 2026-05-04 15:11 | 28.53495 | -67.19128 | 36125 ft | 421 kts | 240° |
| 2026-05-04 15:12 | 28.50527 | -67.24903 | 36128 ft | 420 kts | 240° |
| 2026-05-04 15:12 | 28.47589 | -67.30603 | 36138 ft | 420 kts | 240° |
| 2026-05-04 15:13 | 28.44642 | -67.36330 | 36122 ft | 419 kts | 240° |
| 2026-05-04 15:13 | 28.41701 | -67.42044 | 36131 ft | 419 kts | 240° |
| 2026-05-04 15:14 | 28.38747 | -67.47756 | 36127 ft | 419 kts | 240° |
| 2026-05-04 15:14 | 28.35800 | -67.53455 | 36122 ft | 419 kts | 240° |
| 2026-05-04 15:15 | 28.33319 | -67.58233 | 36111 ft | 419 kts | 240° |
| 2026-05-04 15:15 | 28.30359 | -67.63926 | 36110 ft | 419 kts | 240° |
| 2026-05-04 15:16 | 28.25929 | -67.72470 | 36108 ft | 419 kts | 240° |
| 2026-05-04 15:17 | 28.21488 | -67.80995 | 36106 ft | 419 kts | 240° |
| 2026-05-04 15:17 | 28.17042 | -67.89515 | 36108 ft | 418 kts | 240° |
| 2026-05-04 15:18 | 28.14082 | -67.95190 | 36103 ft | 418 kts | 240° |
| 2026-05-04 15:19 | 28.09627 | -68.03686 | 36102 ft | 418 kts | 240° |
| 2026-05-04 15:19 | 28.05189 | -68.12150 | 36105 ft | 418 kts | 240° |
| 2026-05-04 15:20 | 28.02217 | -68.17808 | 36098 ft | 419 kts | 240° |
| 2026-05-04 15:20 | 27.99226 | -68.23462 | 36101 ft | 419 kts | 240° |
| 2026-05-04 15:21 | 27.96246 | -68.29137 | 36095 ft | 419 kts | 240° |
| 2026-05-04 15:22 | 27.91771 | -68.37633 | 36094 ft | 419 kts | 240° |
| 2026-05-04 15:22 | 27.87282 | -68.46118 | 36088 ft | 419 kts | 240° |
| 2026-05-04 15:23 | 27.84285 | -68.51780 | 36093 ft | 420 kts | 240° |
| 2026-05-04 15:23 | 27.81280 | -68.57428 | 36091 ft | 420 kts | 240° |
| 2026-05-04 15:24 | 27.75264 | -68.68755 | 36083 ft | 421 kts | 240° |
| 2026-05-04 15:25 | 27.72250 | -68.74417 | 36085 ft | 421 kts | 240° |
| 2026-05-04 15:26 | 27.67711 | -68.82931 | 36095 ft | 422 kts | 240° |
| 2026-05-04 15:26 | 27.63159 | -68.91455 | 36098 ft | 424 kts | 240° |
| 2026-05-04 15:27 | 27.58600 | -68.99966 | 36098 ft | 425 kts | 239° |
| 2026-05-04 15:28 | 27.54010 | -69.08514 | 36098 ft | 425 kts | 239° |
| 2026-05-04 15:29 | 27.49421 | -69.17056 | 36127 ft | 424 kts | 239° |
| 2026-05-04 15:30 | 27.38691 | -69.36959 | 36126 ft | 426 kts | 239° |
| 2026-05-04 15:31 | 27.34073 | -69.45490 | 36120 ft | 426 kts | 239° |
| 2026-05-04 15:32 | 27.26346 | -69.59727 | 36109 ft | 427 kts | 239° |
| 2026-05-04 15:34 | 27.18619 | -69.73941 | 36113 ft | 427 kts | 239° |
| 2026-05-04 15:34 | 27.13967 | -69.82464 | 36104 ft | 426 kts | 239° |
| 2026-05-04 15:35 | 27.09317 | -69.90959 | 36093 ft | 426 kts | 239° |
| 2026-05-04 15:36 | 27.04666 | -69.99453 | 36091 ft | 426 kts | 239° |
| 2026-05-04 15:36 | 27.01564 | -70.05114 | 36092 ft | 426 kts | 239° |
| 2026-05-04 15:37 | 26.98447 | -70.10780 | 36094 ft | 428 kts | 239° |
| 2026-05-04 15:37 | 26.95321 | -70.16466 | 36102 ft | 428 kts | 239° |
| 2026-05-04 15:38 | 26.92197 | -70.22180 | 36119 ft | 435 kts | 239° |
| 2026-05-04 15:38 | 26.89057 | -70.27856 | 36104 ft | 431 kts | 239° |
| 2026-05-04 15:39 | 26.85942 | -70.33534 | 36078 ft | 429 kts | 239° |
| 2026-05-04 15:40 | 26.81157 | -70.42068 | 36114 ft | 429 kts | 239° |
| 2026-05-04 15:40 | 26.77988 | -70.47697 | 36039 ft | 425 kts | 240° |
| 2026-05-04 15:41 | 26.74914 | -70.53338 | 36051 ft | 423 kts | 241° |
| 2026-05-04 15:41 | 26.71885 | -70.58986 | 36088 ft | 431 kts | 239° |
| 2026-05-04 15:42 | 26.68755 | -70.64684 | 36070 ft | 434 kts | 239° |
| 2026-05-04 15:42 | 26.65528 | -70.70343 | 36070 ft | 430 kts | 238° |
| 2026-05-04 15:43 | 26.62273 | -70.75985 | 36071 ft | 432 kts | 241° |
| 2026-05-04 15:43 | 26.59120 | -70.81685 | 36082 ft | 430 kts | 239° |
| 2026-05-04 15:44 | 26.56043 | -70.87375 | 36009 ft | 423 kts | 239° |
| 2026-05-04 15:44 | 26.52948 | -70.92952 | 36068 ft | 424 kts | 240° |
| 2026-05-04 15:45 | 26.49728 | -70.98630 | 36065 ft | 434 kts | 239° |
| 2026-05-04 15:45 | 26.46462 | -71.04241 | 36069 ft | 426 kts | 239° |
| 2026-05-04 15:46 | 26.43724 | -71.10182 | 36053 ft | 437 kts | 248° |
| 2026-05-04 15:46 | 26.42204 | -71.16654 | 36075 ft | 432 kts | 257° |
| 2026-05-04 15:47 | 26.40964 | -71.23179 | 36063 ft | 427 kts | 256° |
| 2026-05-04 15:47 | 26.39731 | -71.29688 | 36060 ft | 435 kts | 256° |
| 2026-05-04 15:48 | 26.38554 | -71.36279 | 36058 ft | 432 kts | 257° |
| 2026-05-04 15:48 | 26.36702 | -71.46108 | 36035 ft | 434 kts | 259° |
| 2026-05-04 15:49 | 26.35491 | -71.52723 | 36052 ft | 435 kts | 257° |
| 2026-05-04 15:49 | 26.34198 | -71.59304 | 36060 ft | 432 kts | 256° |
| 2026-05-04 15:50 | 26.33035 | -71.65914 | 36092 ft | 436 kts | 256° |
| 2026-05-04 15:50 | 26.31708 | -71.72618 | 36059 ft | 444 kts | 256° |
| 2026-05-04 15:51 | 26.30483 | -71.79247 | 36058 ft | 434 kts | 258° |
| 2026-05-04 15:51 | 26.29314 | -71.85810 | 36051 ft | 435 kts | 257° |
| 2026-05-04 15:52 | 26.28072 | -71.92422 | 36051 ft | 437 kts | 256° |
| 2026-05-04 15:52 | 26.26770 | -71.98965 | 36055 ft | 432 kts | 256° |
| 2026-05-04 15:53 | 26.25520 | -72.05561 | 36066 ft | 435 kts | 257° |
| 2026-05-04 15:53 | 26.24273 | -72.12143 | 36061 ft | 434 kts | 257° |
| 2026-05-04 15:54 | 26.23015 | -72.18728 | 36062 ft | 435 kts | 256° |
| 2026-05-04 15:54 | 26.21762 | -72.25267 | 36067 ft | 434 kts | 256° |
| 2026-05-04 15:55 | 26.20492 | -72.31885 | 36048 ft | 434 kts | 256° |
| 2026-05-04 15:55 | 26.19231 | -72.38440 | 36054 ft | 433 kts | 256° |
| 2026-05-04 15:56 | 26.17962 | -72.45004 | 36057 ft | 433 kts | 256° |
| 2026-05-04 15:56 | 26.16706 | -72.51503 | 36054 ft | 432 kts | 256° |
| 2026-05-04 15:57 | 26.15439 | -72.58049 | 36063 ft | 432 kts | 256° |
| 2026-05-04 15:57 | 26.14172 | -72.64581 | 36058 ft | 431 kts | 256° |
| 2026-05-04 15:58 | 26.12897 | -72.71103 | 36053 ft | 431 kts | 256° |
| 2026-05-04 15:58 | 26.11622 | -72.77622 | 36064 ft | 431 kts | 256° |
| 2026-05-04 15:59 | 26.10352 | -72.84129 | 36058 ft | 431 kts | 256° |
| 2026-05-04 15:59 | 26.09071 | -72.90632 | 36059 ft | 430 kts | 256° |
| 2026-05-04 16:00 | 26.07790 | -72.97131 | 36061 ft | 430 kts | 256° |
| 2026-05-04 16:00 | 26.06508 | -73.03633 | 36067 ft | 430 kts | 256° |
| 2026-05-04 16:01 | 26.05223 | -73.10129 | 36069 ft | 430 kts | 256° |
| 2026-05-04 16:01 | 26.04156 | -73.15521 | 36065 ft | 429 kts | 256° |
| 2026-05-04 16:02 | 26.02869 | -73.21990 | 36066 ft | 429 kts | 256° |
| 2026-05-04 16:03 | 26.00930 | -73.31692 | 36071 ft | 427 kts | 256° |
| 2026-05-04 16:03 | 25.99645 | -73.38129 | 36049 ft | 427 kts | 256° |
| 2026-05-04 16:03 | 25.98994 | -73.41369 | 36216 ft | 432 kts | 256° |
| 2026-05-04 16:04 | 25.98340 | -73.44634 | 36771 ft | 431 kts | 256° |
| 2026-05-04 16:04 | 25.97041 | -73.51073 | 37914 ft | 427 kts | 256° |
| 2026-05-04 16:04 | 25.96412 | -73.54232 | 38051 ft | 413 kts | 256° |
| 2026-05-04 16:05 | 25.95170 | -73.60383 | 38063 ft | 407 kts | 256° |
| 2026-05-04 16:06 | 25.93324 | -73.69550 | 38064 ft | 402 kts | 256° |
| 2026-05-04 16:07 | 25.90659 | -73.81619 | 38069 ft | 403 kts | 255° |
| 2026-05-04 16:08 | 25.87893 | -73.93634 | 38070 ft | 405 kts | 251° |
| 2026-05-04 16:09 | 25.84438 | -74.08584 | 38030 ft | 399 kts | 256° |
| 2026-05-04 16:10 | 25.81723 | -74.20490 | 38003 ft | 396 kts | 253° |
| 2026-05-04 16:11 | 25.78854 | -74.32467 | 38052 ft | 404 kts | 255° |
| 2026-05-04 16:12 | 25.74719 | -74.50472 | 38037 ft | 399 kts | 252° |
| 2026-05-04 16:13 | 25.71920 | -74.62526 | 38054 ft | 403 kts | 254° |
| 2026-05-04 16:14 | 25.69122 | -74.74425 | 38000 ft | 396 kts | 256° |
| 2026-05-04 16:16 | 25.65604 | -74.89390 | 38051 ft | 406 kts | 256° |
| 2026-05-04 16:17 | 25.61980 | -75.04362 | 38053 ft | 405 kts | 256° |
| 2026-05-04 16:18 | 25.59144 | -75.16374 | 38054 ft | 405 kts | 255° |
| 2026-05-04 16:19 | 25.55497 | -75.31315 | 38055 ft | 405 kts | 253° |
| 2026-05-04 16:20 | 25.51935 | -75.46243 | 38053 ft | 398 kts | 255° |
| 2026-05-04 16:22 | 25.48363 | -75.61110 | 38066 ft | 403 kts | 253° |
| 2026-05-04 16:23 | 25.43999 | -75.78894 | 38062 ft | 399 kts | 255° |
| 2026-05-04 16:25 | 25.39638 | -75.96739 | 38065 ft | 400 kts | 256° |
| 2026-05-04 16:26 | 25.34528 | -76.17446 | 38070 ft | 403 kts | 256° |
| 2026-05-04 16:28 | 25.30926 | -76.32374 | 38051 ft | 396 kts | 252° |
| 2026-05-04 16:29 | 25.25699 | -76.53039 | 38060 ft | 396 kts | 255° |
| 2026-05-04 16:30 | 25.23446 | -76.61995 | 38105 ft | 409 kts | 254° |
| 2026-05-04 16:31 | 25.22007 | -76.67997 | 38040 ft | 395 kts | 253° |
| 2026-05-04 16:32 | 25.17542 | -76.85691 | 38058 ft | 397 kts | 255° |
| 2026-05-04 16:33 | 25.14601 | -76.97484 | 38069 ft | 397 kts | 255° |
| 2026-05-04 16:34 | 25.12327 | -77.06324 | 38064 ft | 400 kts | 254° |
| 2026-05-04 16:35 | 25.07835 | -77.23993 | 38036 ft | 397 kts | 254° |
| 2026-05-04 16:36 | 25.05599 | -77.32763 | 38027 ft | 396 kts | 254° |
| 2026-05-04 16:37 | 25.03359 | -77.41527 | 38028 ft | 396 kts | 254° |
| 2026-05-04 16:38 | 25.01799 | -77.53531 | 38025 ft | 397 kts | 263° |
| 2026-05-04 16:39 | 25.00502 | -77.68674 | 38030 ft | 397 kts | 263° |
| 2026-05-04 16:40 | 24.99453 | -77.80797 | 38034 ft | 398 kts | 263° |
| 2026-05-04 16:41 | 24.98126 | -77.95979 | 38031 ft | 399 kts | 262° |
| 2026-05-04 16:43 | 24.97101 | -78.11247 | 38044 ft | 401 kts | 265° |
| 2026-05-04 16:43 | 24.96814 | -78.20456 | 38050 ft | 402 kts | 265° |
| 2026-05-04 16:45 | 24.96219 | -78.38909 | 38050 ft | 401 kts | 265° |
| 2026-05-04 16:46 | 24.95710 | -78.54263 | 37842 ft | 397 kts | 265° |
| 2026-05-04 16:47 | 24.95539 | -78.59290 | 37337 ft | 394 kts | 265° |
| 2026-05-04 16:47 | 24.95711 | -78.65409 | 35439 ft | 409 kts | 274° |
| 2026-05-04 16:48 | 24.97115 | -78.74768 | 33400 ft | 416 kts | 276° |
| 2026-05-04 16:48 | 24.97582 | -78.77928 | 32911 ft | 418 kts | 276° |
| 2026-05-04 16:49 | 24.98508 | -78.84216 | 31830 ft | 412 kts | 277° |
| 2026-05-04 16:49 | 24.99414 | -78.90350 | 30811 ft | 399 kts | 277° |
| 2026-05-04 16:50 | 25.00296 | -78.96311 | 29827 ft | 388 kts | 277° |
| 2026-05-04 16:50 | 25.01142 | -79.02098 | 28895 ft | 378 kts | 278° |
| 2026-05-04 16:51 | 25.01990 | -79.07721 | 27994 ft | 371 kts | 281° |
| 2026-05-04 16:51 | 25.02691 | -79.10485 | 27543 ft | 372 kts | 287° |
| 2026-05-04 16:51 | 25.04957 | -79.15604 | 26632 ft | 373 kts | 299° |
| 2026-05-04 16:52 | 25.07825 | -79.20340 | 25716 ft | 368 kts | 300° |
| 2026-05-04 16:52 | 25.09226 | -79.22679 | 25258 ft | 363 kts | 300° |
| 2026-05-04 16:53 | 25.11976 | -79.27275 | 24383 ft | 355 kts | 300° |
| 2026-05-04 16:53 | 25.16014 | -79.34033 | 23059 ft | 350 kts | 300° |
| 2026-05-04 16:54 | 25.17349 | -79.36273 | 22618 ft | 348 kts | 300° |
| 2026-05-04 16:55 | 25.22705 | -79.45257 | 21195 ft | 361 kts | 300° |
| 2026-05-04 16:55 | 25.25453 | -79.49858 | 20327 ft | 354 kts | 300° |
| 2026-05-04 16:56 | 25.28117 | -79.54321 | 19486 ft | 342 kts | 299° |
| 2026-05-04 16:56 | 25.31952 | -79.60764 | 18255 ft | 328 kts | 299° |
| 2026-05-04 16:57 | 25.33195 | -79.62853 | 17862 ft | 323 kts | 298° |
| 2026-05-04 16:57 | 25.35634 | -79.66969 | 17071 ft | 317 kts | 298° |
| 2026-05-04 16:58 | 25.39206 | -79.72997 | 15693 ft | 314 kts | 299° |
| 2026-05-04 16:58 | 25.40472 | -79.75023 | 15395 ft | 327 kts | 301° |
| 2026-05-04 16:59 | 25.43182 | -79.79184 | 14634 ft | 335 kts | 302° |
| 2026-05-04 17:00 | 25.48399 | -79.87299 | 13017 ft | 311 kts | 301° |
| 2026-05-04 17:00 | 25.52074 | -79.93018 | 11875 ft | 298 kts | 302° |
| 2026-05-04 17:01 | 25.54416 | -79.96679 | 11145 ft | 293 kts | 302° |
| 2026-05-04 17:01 | 25.56708 | -80.00273 | 10743 ft | 283 kts | 302° |
| 2026-05-04 17:02 | 25.58983 | -80.03825 | 10262 ft | 282 kts | 302° |
| 2026-05-04 17:02 | 25.61232 | -80.07363 | 9997 ft | 282 kts | 303° |
| 2026-05-04 17:03 | 25.62377 | -80.09134 | 9861 ft | 283 kts | 303° |
| 2026-05-04 17:03 | 25.63519 | -80.10906 | 9558 ft | 286 kts | 303° |
| 2026-05-04 17:03 | 25.65709 | -80.14544 | 9079 ft | 280 kts | 295° |
| 2026-05-04 17:04 | 25.67334 | -80.18432 | 8698 ft | 277 kts | 294° |
| 2026-05-04 17:04 | 25.68995 | -80.22275 | 8242 ft | 276 kts | 295° |
| 2026-05-04 17:05 | 25.70677 | -80.26164 | 7767 ft | 278 kts | 291° |
| 2026-05-04 17:05 | 25.71174 | -80.30329 | 6731 ft | 274 kts | 265° |
| 2026-05-04 17:06 | 25.70918 | -80.34530 | 5757 ft | 270 kts | 267° |
| 2026-05-04 17:06 | 25.70828 | -80.36603 | 5395 ft | 268 kts | 268° |
| 2026-05-04 17:07 | 25.70643 | -80.40684 | 4767 ft | 257 kts | 268° |
| 2026-05-04 17:07 | 25.70581 | -80.41970 | 4556 ft | 248 kts | 268° |
| 2026-05-04 17:07 | 25.70460 | -80.44417 | 4118 ft | 232 kts | 267° |
| 2026-05-04 17:07 | 25.70361 | -80.46174 | 3790 ft | 226 kts | 267° |
| 2026-05-04 17:08 | 25.70264 | -80.47896 | 3546 ft | 222 kts | 269° |
| 2026-05-04 17:08 | 25.70117 | -80.51231 | 3182 ft | 206 kts | 269° |
| 2026-05-04 17:08 | 25.70047 | -80.52781 | 3115 ft | 205 kts | 269° |
| 2026-05-04 17:09 | 25.70136 | -80.54370 | 3111 ft | 204 kts | 291° |
| 2026-05-04 17:09 | 25.70946 | -80.55612 | 3115 ft | 200 kts | 327° |
| 2026-05-04 17:09 | 25.72234 | -80.56112 | 3123 ft | 197 kts | 352° |
| 2026-05-04 17:10 | 25.74953 | -80.56592 | 3111 ft | 198 kts | 352° |
| 2026-05-04 17:10 | 25.78554 | -80.55484 | 3109 ft | 200 kts | 68° |
| 2026-05-04 17:11 | 25.78584 | -80.53932 | 3125 ft | 205 kts | 100° |
| 2026-05-04 17:11 | 25.78246 | -80.52417 | 3108 ft | 205 kts | 102° |
| 2026-05-04 17:11 | 25.77875 | -80.49314 | 3112 ft | 203 kts | 87° |
| 2026-05-04 17:12 | 25.77934 | -80.47753 | 2983 ft | 202 kts | 84° |
| 2026-05-04 17:12 | 25.78052 | -80.44914 | 2456 ft | 169 kts | 85° |
| 2026-05-04 17:13 | 25.78206 | -80.41215 | 1817 ft | 150 kts | 85° |
| 2026-05-04 17:14 | 25.78344 | -80.37924 | 1253 ft | 139 kts | 86° |
| 2026-05-04 17:14 | 25.78385 | -80.36858 | 1060 ft | 136 kts | 86° |
| 2026-05-04 17:14 | 25.78471 | -80.34799 | 707 ft | 133 kts | 85° |
| 2026-05-04 17:15 | 25.78514 | -80.33772 | 531 ft | 133 kts | 86° |
| 2026-05-04 17:15 | 25.78601 | -80.31738 | 126 ft | 130 kts | 84° |
| 2026-05-04 17:16 | 25.78674 | -80.29968 | 19 ft | 81 kts | 87° |
| 2026-05-04 17:16 | 25.78721 | -80.28830 | 23 ft | 28 kts | 86° |
| 2026-05-04 17:17 | 25.78730 | -80.28671 | 21 ft | 19 kts | 85° |
| 2026-05-04 17:17 | 25.78843 | -80.28403 | 21 ft | 6 kts | 50° |
| 2026-05-04 17:18 | 25.78846 | -80.28399 | 22 ft | 0 kts | 50° |
| 2026-05-04 17:19 | 25.78897 | -80.28331 | 25 ft | 10 kts | 50° |
| 2026-05-04 17:19 | 25.79012 | -80.28249 | 24 ft | 11 kts | 325° |
| 2026-05-04 17:20 | 25.79100 | -80.28393 | 20 ft | 11 kts | 298° |
| 2026-05-04 17:20 | 25.79209 | -80.28577 | 22 ft | 9 kts | 298° |
| 2026-05-04 17:20 | 25.79248 | -80.28613 | 20 ft | 6 kts | 1° |
| 2026-05-04 17:21 | 25.79293 | -80.28539 | 20 ft | 7 kts | 86° |
| 2026-05-04 17:21 | 25.79298 | -80.28440 | 22 ft | 2 kts | 84° |
| 2026-05-04 17:22 | 25.79307 | -80.28415 | 23 ft | 5 kts | 50° |
| 2026-05-04 17:22 | 25.79339 | -80.28394 | 22 ft | 6 kts | 12° |
| 2026-05-04 17:23 | 25.79399 | -80.28380 | 23 ft | 1 kts | 13° |
| 2026-05-04 17:23 | 25.79400 | -80.28379 | 21 ft | 0 kts | 13° |